createdAt,value
2018-08-31T00:05:54.666Z,96308.28
2018-08-31T00:10:46.871Z,96319.20
2018-08-31T00:13:16.731Z,96316.27
2018-08-31T00:15:46.573Z,96308.55
2018-08-31T00:18:16.511Z,96305.78
2018-08-31T00:20:46.319Z,96303.16
2018-08-31T00:23:16.097Z,96312.98
2018-08-31T00:26:15.821Z,96307.35
2018-08-31T00:29:41.261Z,96313.11
2018-08-31T00:32:27.982Z,96302.59
2018-08-31T00:37:16.548Z,96300.27
2018-08-31T00:42:15.401Z,96310.60
2018-08-31T00:45:32.353Z,96302.02
2018-08-31T00:48:02.757Z,96299.95
2018-08-31T00:50:33.129Z,96294.98
2018-08-31T00:53:03.546Z,96297.48
2018-08-31T00:55:33.785Z,96289.34
2018-08-31T00:58:03.639Z,96285.12
2018-08-31T01:00:33.503Z,96271.14
2018-08-31T01:06:39.364Z,96238.67
2018-08-31T01:09:09.391Z,96242.66
2018-08-31T01:11:39.299Z,96230.12
2018-08-31T01:14:09.164Z,96238.41
2018-08-31T01:16:38.986Z,96234.88
2018-08-31T01:19:08.954Z,96232.67
2018-08-31T01:21:38.720Z,96223.53
2018-08-31T01:24:08.897Z,96242.71
2018-08-31T01:28:08.120Z,96249.21
2018-08-31T01:30:38.141Z,96276.83
2018-08-31T01:33:08.317Z,96277.58
2018-08-31T01:35:38.142Z,96282.64
2018-08-31T01:38:07.976Z,96289.29
2018-08-31T01:40:37.806Z,96290.72
2018-08-31T01:43:07.640Z,96282.77
2018-08-31T01:45:38.056Z,96264.47
2018-08-31T01:48:07.888Z,96264.84
2018-08-31T01:50:41.786Z,96267.03
2018-08-31T01:53:11.758Z,96257.42
2018-08-31T01:55:41.620Z,96258.31
2018-08-31T01:58:11.488Z,96273.90
2018-08-31T02:00:41.294Z,96271.50
2018-08-31T02:03:11.181Z,96267.70
2018-08-31T02:05:41.016Z,96275.27
2018-08-31T02:08:10.779Z,96271.38
2018-08-31T02:10:40.624Z,96272.05
2018-08-31T02:13:10.433Z,96267.11
2018-08-31T02:15:40.518Z,96260.46
2018-08-31T02:18:10.813Z,96269.33
2018-08-31T02:20:40.664Z,96271.94
2018-08-31T02:23:10.483Z,96276.52
2018-08-31T02:25:40.277Z,96268.94
2018-08-31T02:28:10.162Z,96269.22
2018-08-31T02:30:40.291Z,96277.53
2018-08-31T02:33:10.068Z,96270.95
2018-08-31T02:35:40.177Z,96267.09
2018-08-31T02:38:10.051Z,96271.05
2018-08-31T02:40:39.875Z,96270.86
2018-08-31T02:43:10.569Z,96272.13
2018-08-31T02:45:40.361Z,96272.23
2018-08-31T02:48:10.193Z,96269.38
2018-08-31T02:50:40.455Z,96263.27
2018-08-31T02:53:10.283Z,96258.27
2018-08-31T02:55:40.585Z,96254.78
2018-08-31T02:58:10.405Z,96251.69
2018-08-31T03:00:40.243Z,96252.98
2018-08-31T03:03:10.103Z,96245.06
2018-08-31T03:05:39.971Z,96239.16
2018-08-31T03:08:10.135Z,96231.14
2018-08-31T03:10:39.999Z,96229.86
2018-08-31T03:13:09.811Z,96225.12
2018-08-31T03:15:40.013Z,96230.28
2018-08-31T03:18:09.889Z,96228.23
2018-08-31T03:20:39.910Z,96236.28
2018-08-31T03:23:09.790Z,96232.36
2018-08-31T03:25:39.598Z,96234.47
2018-08-31T03:28:09.468Z,96231.84
2018-08-31T03:30:39.428Z,96234.55
2018-08-31T03:33:09.302Z,96235.93
2018-08-31T03:35:39.187Z,96241.84
2018-08-31T03:38:09.051Z,96236.99
2018-08-31T03:40:38.879Z,96231.08
2018-08-31T03:43:09.234Z,96214.95
2018-08-31T03:45:39.051Z,96196.96
2018-08-31T03:48:08.930Z,96182.80
2018-08-31T03:50:38.731Z,96185.68
2018-08-31T03:53:08.611Z,96195.90
2018-08-31T03:55:38.636Z,96199.42
2018-08-31T03:58:08.492Z,96203.01
2018-08-31T04:00:38.648Z,96209.02
2018-08-31T04:03:08.569Z,96214.11
2018-08-31T04:05:38.432Z,96215.72
2018-08-31T04:08:09.356Z,96220.98
2018-08-31T04:10:39.254Z,96218.98
2018-08-31T04:13:09.081Z,96199.48
2018-08-31T04:15:38.936Z,96178.16
2018-08-31T04:18:08.766Z,96165.38
2018-08-31T04:20:38.722Z,96182.39
2018-08-31T04:23:08.617Z,96198.08
2018-08-31T04:25:38.404Z,96199.45
2018-08-31T04:28:08.224Z,96204.19
2018-08-31T04:30:38.096Z,96196.39
2018-08-31T04:33:08.370Z,96191.14
2018-08-31T04:35:38.267Z,96199.78
2018-08-31T04:38:08.178Z,96196.69
2018-08-31T04:40:38.061Z,96185.07
2018-08-31T04:43:08.002Z,96181.28
2018-08-31T04:45:38.007Z,96189.04
2018-08-31T04:48:08.071Z,96195.41
2018-08-31T04:50:37.893Z,96200.34
2018-08-31T04:53:08.019Z,96184.34
2018-08-31T04:55:37.868Z,96154.45
2018-08-31T04:58:07.889Z,96140.16
2018-08-31T05:00:38.085Z,96132.36
2018-08-31T05:03:07.951Z,96129.91
2018-08-31T05:05:37.761Z,96125.70
2018-08-31T05:08:08.046Z,96145.10
2018-08-31T05:10:38.049Z,96160.08
2018-08-31T05:13:07.911Z,96148.93
2018-08-31T05:15:37.712Z,96146.02
2018-08-31T05:18:07.588Z,96146.05
2018-08-31T05:20:37.525Z,96151.11
2018-08-31T05:23:07.690Z,96149.48
2018-08-31T05:25:37.659Z,96150.83
2018-08-31T05:28:07.829Z,96156.30
2018-08-31T05:30:37.631Z,96160.75
2018-08-31T05:33:08.280Z,96166.30
2018-08-31T05:35:38.155Z,96172.14
2018-08-31T05:38:08.361Z,96169.23
2018-08-31T05:40:38.131Z,96171.33
2018-08-31T05:43:07.971Z,96168.94
2018-08-31T05:45:37.864Z,96168.94
2018-08-31T05:48:07.785Z,96169.41
2018-08-31T05:50:37.637Z,96165.28
2018-08-31T05:53:07.566Z,96169.95
2018-08-31T05:55:37.405Z,96177.27
2018-08-31T05:58:07.298Z,96180.63
2018-08-31T06:00:37.821Z,96190.33
2018-08-31T06:03:08.395Z,96193.72
2018-08-31T06:05:38.268Z,96195.23
2018-08-31T06:08:08.112Z,96195.88
2018-08-31T06:10:37.921Z,96196.35
2018-08-31T06:13:07.854Z,96200.07
2018-08-31T06:15:37.684Z,96195.17
2018-08-31T06:18:08.899Z,96194.70
2018-08-31T06:20:38.903Z,96202.63
2018-08-31T06:23:08.778Z,96205.02
2018-08-31T06:25:38.788Z,96205.45
2018-08-31T06:28:08.716Z,96207.13
2018-08-31T06:30:38.784Z,96207.05
2018-08-31T06:33:08.957Z,96206.52
2018-08-31T06:35:38.906Z,96202.09
2018-08-31T06:38:09.001Z,96202.70
2018-08-31T06:40:39.663Z,96192.34
2018-08-31T06:43:10.922Z,96189.06
2018-08-31T06:45:40.980Z,96188.08
2018-08-31T06:48:10.838Z,96189.02
2018-08-31T06:50:40.724Z,96185.09
2018-08-31T06:53:10.650Z,96185.92
2018-08-31T06:55:40.708Z,96185.73
2018-08-31T06:58:10.636Z,96182.36
2018-08-31T07:00:40.502Z,96184.42
2018-08-31T07:03:10.466Z,96182.67
2018-08-31T07:05:40.451Z,96191.33
2018-08-31T07:08:10.803Z,96181.53
2018-08-31T07:10:40.972Z,96183.09
2018-08-31T07:13:10.875Z,96180.27
2018-08-31T07:15:40.654Z,96176.55
2018-08-31T07:18:10.574Z,96175.45
2018-08-31T07:20:41.438Z,96183.88
2018-08-31T07:23:11.300Z,96187.02
2018-08-31T07:25:41.160Z,96188.94
2018-08-31T07:28:11.019Z,96186.62
2018-08-31T07:30:40.984Z,96183.22
2018-08-31T07:33:10.808Z,96193.96
2018-08-31T07:35:41.520Z,96193.92
2018-08-31T07:38:11.482Z,96201.21
2018-08-31T07:40:41.375Z,96197.09
2018-08-31T07:43:11.187Z,96190.04
2018-08-31T07:45:41.834Z,96185.18
2018-08-31T07:48:11.740Z,96189.30
2018-08-31T07:50:41.514Z,96196.12
2018-08-31T07:53:11.347Z,96194.59
2018-08-31T07:55:41.213Z,96194.86
2018-08-31T07:58:11.148Z,96190.63
2018-08-31T08:00:41.101Z,96193.96
2018-08-31T08:03:11.058Z,96194.56
2018-08-31T08:05:41.067Z,96195.59
2018-08-31T08:08:11.656Z,96204.08
2018-08-31T08:10:41.990Z,96198.16
2018-08-31T08:13:12.003Z,96194.73
2018-08-31T08:15:41.808Z,96193.20
2018-08-31T08:18:11.603Z,96192.36
2018-08-31T08:20:41.503Z,96189.74
2018-08-31T08:23:11.362Z,96182.09
2018-08-31T08:25:41.218Z,96183.58
2018-08-31T08:28:11.482Z,96180.55
2018-08-31T08:30:41.503Z,96171.45
2018-08-31T08:33:11.555Z,96176.23
2018-08-31T08:35:41.584Z,96182.91
2018-08-31T08:38:11.468Z,96187.07
2018-08-31T08:40:41.711Z,96194.59
2018-08-31T08:43:11.559Z,96191.55
2018-08-31T08:45:41.495Z,96202.78
2018-08-31T08:48:11.392Z,96203.60
2018-08-31T08:50:41.607Z,96217.62
2018-08-31T08:53:11.469Z,96209.84
2018-08-31T08:55:41.386Z,96212.41
2018-08-31T08:58:11.379Z,96210.50
2018-08-31T09:00:42.141Z,96210.19
2018-08-31T09:03:12.336Z,96214.63
2018-08-31T09:05:42.539Z,96209.31
2018-08-31T09:08:12.509Z,96214.72
2018-08-31T09:10:42.477Z,96215.23
2018-08-31T09:13:12.509Z,96214.23
2018-08-31T09:15:42.357Z,96209.80
2018-08-31T09:18:12.253Z,96208.66
2018-08-31T09:20:42.075Z,96200.06
2018-08-31T09:23:11.835Z,96192.14
2018-08-31T09:25:41.933Z,96191.95
2018-08-31T09:28:12.436Z,96206.45
2018-08-31T09:30:43.565Z,96209.14
2018-08-31T09:33:13.569Z,96202.09
2018-08-31T09:35:43.541Z,96218.70
2018-08-31T09:38:13.834Z,96209.56
2018-08-31T09:40:43.877Z,96208.78
2018-08-31T09:43:13.801Z,96209.56
2018-08-31T09:45:43.647Z,96204.73
2018-08-31T09:48:13.625Z,96208.38
2018-08-31T09:50:43.569Z,96215.45
2018-08-31T09:53:13.363Z,96216.83
2018-08-31T09:55:43.211Z,96214.06
2018-08-31T09:58:13.567Z,96226.40
2018-08-31T10:00:48.477Z,96230.13
2018-08-31T10:03:22.658Z,96228.73
2018-08-31T10:05:53.367Z,96235.72
2018-08-31T10:08:24.857Z,96231.06
2018-08-31T10:14:30.545Z,96238.69
2018-08-31T10:17:01.007Z,96237.80
2018-08-31T10:19:30.889Z,96238.23
2018-08-31T10:22:00.811Z,96240.93
2018-08-31T10:24:30.717Z,96236.70
2018-08-31T10:27:00.671Z,96235.36
2018-08-31T10:29:30.613Z,96215.77
2018-08-31T10:32:00.420Z,96222.02
2018-08-31T10:34:30.345Z,96215.34
2018-08-31T10:37:00.223Z,96222.33
2018-08-31T10:43:06.035Z,96231.54
2018-08-31T10:45:36.541Z,96235.87
2018-08-31T10:48:06.475Z,96237.84
2018-08-31T10:50:36.279Z,96239.11
2018-08-31T10:53:06.607Z,96235.30
2018-08-31T10:55:36.558Z,96237.09
2018-08-31T10:58:06.739Z,96232.53
2018-08-31T11:00:36.585Z,96226.02
2018-08-31T11:03:06.729Z,96231.59
2018-08-31T11:05:36.634Z,96226.70
2018-08-31T11:08:09.561Z,96228.92
2018-08-31T11:10:39.411Z,96230.90
2018-08-31T11:13:10.060Z,96235.50
2018-08-31T11:15:40.111Z,96234.25
2018-08-31T11:18:10.037Z,96237.51
2018-08-31T11:20:39.934Z,96243.30
2018-08-31T11:23:09.746Z,96238.05
2018-08-31T11:25:39.665Z,96235.44
2018-08-31T11:28:09.779Z,96227.53
2018-08-31T11:30:39.636Z,96225.86
2018-08-31T11:33:09.737Z,96231.61
2018-08-31T11:35:39.600Z,96230.72
2018-08-31T11:38:09.571Z,96226.89
2018-08-31T11:40:40.020Z,96220.80
2018-08-31T11:43:10.602Z,96225.80
2018-08-31T11:45:40.511Z,96223.49
2018-08-31T11:48:10.480Z,96227.53
2018-08-31T11:50:40.302Z,96224.83
2018-08-31T11:53:10.138Z,96222.72
2018-08-31T11:55:39.998Z,96220.70
2018-08-31T11:58:10.152Z,96219.10
2018-08-31T12:00:40.020Z,96221.86
2018-08-31T12:03:10.714Z,96217.35
2018-08-31T12:05:40.832Z,96215.34
2018-08-31T12:08:10.710Z,96212.65
2018-08-31T12:10:41.436Z,96214.72
2018-08-31T12:13:11.340Z,96214.13
2018-08-31T12:15:41.178Z,96213.27
2018-08-31T12:18:11.046Z,96215.97
2018-08-31T12:20:41.746Z,96221.55
2018-08-31T12:23:11.760Z,96227.27
2018-08-31T12:25:41.665Z,96229.44
2018-08-31T12:28:11.582Z,96231.80
2018-08-31T12:30:41.470Z,96228.25
2018-08-31T12:33:11.288Z,96226.41
2018-08-31T12:35:41.382Z,96221.70
2018-08-31T12:38:12.496Z,96219.55
2018-08-31T12:40:42.594Z,96219.38
2018-08-31T12:43:12.414Z,96219.42
2018-08-31T12:45:42.220Z,96215.88
2018-08-31T12:48:12.058Z,96219.63
2018-08-31T12:50:41.994Z,96209.43
2018-08-31T12:53:11.947Z,96219.24
2018-08-31T12:55:41.822Z,96222.80
2018-08-31T12:58:11.622Z,96218.08
2018-08-31T13:00:42.265Z,96216.56
2018-08-31T13:03:12.148Z,96206.50
2018-08-31T13:05:41.962Z,96211.80
2018-08-31T13:08:11.945Z,96215.08
2018-08-31T13:10:41.931Z,96212.68
2018-08-31T13:13:11.897Z,96210.56
2018-08-31T13:15:41.723Z,96210.28
2018-08-31T13:18:11.668Z,96204.87
2018-08-31T13:20:41.615Z,96205.16
2018-08-31T13:23:11.534Z,96210.19
2018-08-31T13:25:41.489Z,96208.12
2018-08-31T13:28:11.437Z,96214.03
2018-08-31T13:30:42.001Z,96208.65
2018-08-31T13:33:11.849Z,96204.34
2018-08-31T13:35:41.682Z,96207.34
2018-08-31T13:38:58.703Z,96208.56
2018-08-31T13:41:28.503Z,96208.81
2018-08-31T13:43:58.322Z,96211.75
2018-08-31T13:46:28.253Z,96216.70
2018-08-31T13:48:58.422Z,96220.06
2018-08-31T13:51:28.901Z,96212.31
2018-08-31T13:53:58.706Z,96222.16
2018-08-31T13:56:28.534Z,96220.25
2018-08-31T13:58:58.337Z,96214.69
2018-08-31T14:01:28.160Z,96219.72
2018-08-31T14:03:58.279Z,96218.20
2018-08-31T14:06:29.365Z,96216.95
2018-08-31T14:08:59.698Z,96217.65
2018-08-31T14:11:29.928Z,96222.31
2018-08-31T14:13:59.931Z,96221.41
2018-08-31T14:16:29.905Z,96220.67
2018-08-31T14:19:00.325Z,96230.47
2018-08-31T14:21:30.371Z,96231.71
2018-08-31T14:24:00.277Z,96230.21
2018-08-31T14:33:42.905Z,96246.20
2018-08-31T14:36:12.975Z,96241.69
2018-08-31T14:38:43.723Z,96244.23
2018-08-31T14:41:13.697Z,96247.20
2018-08-31T14:43:43.605Z,96249.75
2018-08-31T14:46:13.539Z,96244.46
2018-08-31T14:48:43.797Z,96253.14
2018-08-31T14:51:14.283Z,96246.29
2018-08-31T14:53:44.346Z,96247.13
2018-08-31T14:56:14.553Z,96255.03
2018-08-31T14:58:44.591Z,96253.49
2018-08-31T15:01:14.691Z,96254.98
2018-08-31T15:03:44.708Z,96254.81
2018-08-31T15:06:14.610Z,96255.79
2018-08-31T15:08:45.659Z,96261.85
2018-08-31T15:11:15.700Z,96256.17
2018-08-31T15:13:45.715Z,96260.80
2018-08-31T15:16:16.219Z,96257.55
2018-08-31T15:18:46.625Z,96256.94
2018-08-31T15:21:16.703Z,96254.00
2018-08-31T15:23:47.532Z,96256.18
2018-08-31T15:26:17.515Z,96251.86
2018-08-31T15:28:47.414Z,96249.34
2018-08-31T15:31:18.428Z,96249.66
2018-08-31T15:33:49.541Z,96257.83
2018-08-31T15:36:19.785Z,96257.19
2018-08-31T15:38:49.849Z,96255.95
2018-08-31T15:41:19.772Z,96251.90
2018-08-31T15:43:50.399Z,96257.50
2018-08-31T15:46:20.453Z,96265.38
2018-08-31T15:48:50.379Z,96275.88
2018-08-31T15:51:20.281Z,96275.45
2018-08-31T15:53:50.202Z,96262.98
2018-08-31T15:56:20.186Z,96268.41
2018-08-31T15:58:50.112Z,96277.91
2018-08-31T16:01:20.148Z,96288.39
2018-08-31T16:03:50.008Z,96290.97
2018-08-31T16:06:20.038Z,96293.78
2018-08-31T16:08:49.944Z,96300.22
2018-08-31T16:11:20.193Z,96293.23
2018-08-31T16:13:50.016Z,96294.05
2018-08-31T16:16:20.056Z,96291.72
2018-08-31T16:18:49.979Z,96291.89
2018-08-31T16:21:20.112Z,96291.63
2018-08-31T16:23:50.726Z,96291.44
2018-08-31T16:26:21.375Z,96295.31
2018-08-31T16:28:51.517Z,96305.80
2018-08-31T16:31:21.514Z,96305.61
2018-08-31T16:33:51.384Z,96308.66
2018-08-31T16:36:21.770Z,96305.15
2018-08-31T16:38:51.680Z,96315.41
2018-08-31T16:41:24.158Z,96310.61
2018-08-31T16:43:54.293Z,96309.84
2018-08-31T16:46:24.340Z,96309.05
2018-08-31T16:48:54.275Z,96302.39
2018-08-31T16:51:24.466Z,96304.91
2018-08-31T16:53:54.902Z,96318.20
2018-08-31T16:56:25.002Z,96319.52
2018-08-31T16:58:55.120Z,96324.81
2018-08-31T17:01:25.842Z,96319.35
2018-08-31T17:03:56.216Z,96323.98
2018-08-31T17:06:27.048Z,96327.25
2018-08-31T17:08:56.921Z,96321.06
2018-08-31T17:11:27.242Z,96322.52
2018-08-31T17:13:57.067Z,96328.22
2018-08-31T17:16:27.026Z,96330.62
2018-08-31T17:18:56.879Z,96324.00
2018-08-31T17:21:27.254Z,96329.52
2018-08-31T17:23:57.184Z,96329.28
2018-08-31T17:26:33.241Z,96331.58
2018-08-31T17:29:08.301Z,96327.10
2018-08-31T17:31:43.210Z,96331.80
2018-08-31T17:34:18.794Z,96336.02
2018-08-31T17:36:54.134Z,96328.59
2018-08-31T17:39:24.876Z,96333.05
2018-08-31T17:41:55.398Z,96334.64
2018-08-31T17:44:25.974Z,96331.81
2018-08-31T17:46:55.952Z,96338.66
2018-08-31T17:49:26.626Z,96345.03
2018-08-31T17:51:56.522Z,96347.16
2018-08-31T17:54:26.804Z,96344.32
2018-08-31T17:56:56.630Z,96345.52
2018-08-31T17:59:26.506Z,96352.43
2018-08-31T18:01:56.428Z,96359.70
2018-08-31T18:04:26.410Z,96356.66
2018-08-31T18:06:56.290Z,96359.41
2018-08-31T18:09:26.508Z,96361.22
2018-08-31T18:11:56.734Z,96360.78
2018-08-31T18:14:26.526Z,96363.36
2018-08-31T18:17:57.218Z,96361.75
2018-08-31T18:20:27.130Z,96362.14
2018-08-31T18:22:56.886Z,96364.29
2018-08-31T18:25:26.766Z,96363.94
2018-08-31T18:27:56.635Z,96366.25
2018-08-31T18:30:26.647Z,96373.28
2018-08-31T18:32:56.444Z,96378.16
2018-08-31T18:35:26.621Z,96381.27
2018-08-31T18:37:56.756Z,96385.36
2018-08-31T18:40:26.562Z,96389.84
2018-08-31T18:42:57.373Z,96388.61
2018-08-31T18:45:27.224Z,96384.81
2018-08-31T18:47:57.829Z,96390.84
2018-08-31T18:50:27.892Z,96389.10
2018-08-31T18:52:57.724Z,96392.41
2018-08-31T18:55:27.960Z,96395.78
2018-08-31T18:57:57.815Z,96391.66
2018-08-31T19:00:27.861Z,96398.08
2018-08-31T19:02:57.805Z,96397.91
2018-08-31T19:05:27.984Z,96399.14
2018-08-31T19:07:58.627Z,96409.39
2018-08-31T19:10:28.573Z,96414.03
2018-08-31T19:12:58.554Z,96411.71
2018-08-31T19:15:28.669Z,96408.73
2018-08-31T19:17:58.709Z,96410.69
2018-08-31T19:20:28.539Z,96407.81
2018-08-31T19:22:58.435Z,96413.34
2018-08-31T19:25:28.710Z,96408.22
2018-08-31T19:27:58.682Z,96413.56
2018-08-31T19:30:28.579Z,96409.84
2018-08-31T19:32:58.493Z,96408.91
2018-08-31T19:35:28.359Z,96413.22
2018-08-31T19:37:58.238Z,96417.33
2018-08-31T19:40:28.201Z,96420.09
2018-08-31T19:42:57.997Z,96418.28
2018-08-31T19:45:28.323Z,96413.02
2018-08-31T19:47:58.309Z,96420.44
2018-08-31T19:50:28.723Z,96426.70
2018-08-31T19:52:58.878Z,96426.91
2018-08-31T19:55:28.762Z,96427.52
2018-08-31T19:57:59.465Z,96427.28
2018-08-31T20:00:29.223Z,96425.55
2018-08-31T20:02:59.827Z,96424.11
2018-08-31T20:05:29.645Z,96423.38
2018-08-31T20:07:59.497Z,96433.73
2018-08-31T20:10:29.462Z,96422.51
2018-08-31T20:12:59.346Z,96416.56
2018-08-31T20:15:29.335Z,96420.95
2018-08-31T20:17:59.117Z,96425.84
2018-08-31T20:20:29.014Z,96427.69
2018-08-31T20:22:59.107Z,96435.27
2018-08-31T20:25:29.069Z,96433.05
2018-08-31T20:27:59.533Z,96432.84
2018-08-31T20:30:29.424Z,96428.56
2018-08-31T20:32:59.335Z,96433.83
2018-08-31T20:35:29.209Z,96426.94
2018-08-31T20:37:59.251Z,96430.88
2018-08-31T20:40:29.504Z,96430.11
2018-08-31T20:42:59.319Z,96429.95
2018-08-31T20:45:29.249Z,96434.33
2018-08-31T20:47:59.145Z,96434.28
2018-08-31T20:50:29.015Z,96436.66
2018-08-31T20:52:58.863Z,96435.86
2018-08-31T20:55:28.929Z,96443.63
2018-08-31T20:57:58.951Z,96442.91
2018-08-31T21:00:28.990Z,96440.59
2018-08-31T21:02:59.369Z,96438.08
2018-08-31T21:05:29.145Z,96445.66
2018-08-31T21:07:59.161Z,96440.87
2018-08-31T21:10:29.020Z,96443.82
2018-08-31T21:12:58.842Z,96446.22
2018-08-31T21:15:28.722Z,96445.44
2018-08-31T21:17:58.620Z,96439.95
2018-08-31T21:20:28.521Z,96444.44
2018-08-31T21:22:58.424Z,96438.97
2018-08-31T21:25:28.372Z,96446.63
2018-08-31T21:27:58.376Z,96442.91
2018-08-31T21:30:28.780Z,96438.25
2018-08-31T21:32:58.747Z,96443.12
2018-08-31T21:35:28.573Z,96445.27
2018-08-31T21:37:58.409Z,96444.08
2018-08-31T21:40:28.489Z,96439.80
2018-08-31T21:42:58.352Z,96455.19
2018-08-31T21:45:28.147Z,96453.03
2018-08-31T21:47:58.098Z,96451.66
2018-08-31T21:50:27.956Z,96452.48
2018-08-31T21:52:57.758Z,96454.64
2018-08-31T21:55:27.686Z,96444.27
2018-08-31T21:57:57.789Z,96442.91
2018-08-31T22:00:27.784Z,96444.69
2018-08-31T22:02:57.583Z,96440.62
2018-08-31T22:05:27.657Z,96437.27
2018-08-31T22:07:57.483Z,96433.95
2018-08-31T22:10:27.416Z,96436.14
2018-08-31T22:12:57.767Z,96434.56
2018-08-31T22:15:28.323Z,96428.51
2018-08-31T22:17:58.177Z,96433.98
2018-08-31T22:20:28.092Z,96428.71
2018-08-31T22:22:58.274Z,96430.45
2018-08-31T22:25:28.528Z,96430.26
2018-08-31T22:27:58.627Z,96431.83
2018-08-31T22:30:30.248Z,96438.26
2018-08-31T22:33:00.336Z,96438.67
2018-08-31T22:35:30.306Z,96438.84
2018-08-31T22:38:00.146Z,96445.48
2018-08-31T22:40:30.376Z,96445.69
2018-08-31T22:43:00.664Z,96449.59
2018-08-31T22:45:30.533Z,96455.47
2018-08-31T22:48:00.408Z,96449.37
2018-08-31T22:50:30.455Z,96443.33
2018-08-31T22:53:00.306Z,96441.81
2018-08-31T22:55:30.131Z,96440.04
2018-08-31T22:58:00.273Z,96434.16
2018-08-31T23:00:31.412Z,96442.77
2018-08-31T23:03:01.279Z,96439.08
2018-08-31T23:05:31.084Z,96443.94
2018-08-31T23:08:01.906Z,96444.72
2018-08-31T23:10:32.683Z,96437.50
2018-08-31T23:13:03.063Z,96436.34
2018-08-31T23:15:33.117Z,96433.02
2018-08-31T23:18:02.955Z,96433.02
2018-08-31T23:20:32.794Z,96428.34
2018-08-31T23:23:07.674Z,96423.83
2018-08-31T23:25:42.668Z,96418.15
2018-08-31T23:28:13.208Z,96426.59
2018-08-31T23:30:43.048Z,96418.15
2018-08-31T23:33:13.242Z,96421.12
2018-08-31T23:35:43.172Z,96413.11
2018-08-31T23:38:13.118Z,96417.94
2018-08-31T23:40:43.283Z,96417.77
2018-08-31T23:43:13.226Z,96422.25
2018-08-31T23:45:43.153Z,96423.24
2018-08-31T23:48:12.938Z,96419.95
2018-08-31T23:50:43.190Z,96417.19
2018-08-31T23:53:13.112Z,96416.23
2018-08-31T23:55:42.996Z,96416.41
2018-08-31T23:58:13.040Z,96414.66
